createdAt,value
2017-08-28T00:00:08.255Z,0
2017-08-28T00:01:08.855Z,0
2017-08-28T00:02:08.545Z,0
2017-08-28T00:03:09.044Z,0
2017-08-28T00:04:08.842Z,0
2017-08-28T00:05:08.854Z,0
2017-08-28T00:06:08.800Z,0
2017-08-28T00:07:08.810Z,0
2017-08-28T00:08:08.998Z,0
2017-08-28T00:09:08.776Z,0
2017-08-28T00:10:08.462Z,0
2017-08-28T00:11:08.780Z,0
2017-08-28T00:12:08.444Z,0
2017-08-28T00:13:08.430Z,0
2017-08-28T00:14:08.413Z,0
2017-08-28T00:15:08.100Z,0
2017-08-28T00:16:08.399Z,0
2017-08-28T00:17:08.708Z,0
2017-08-28T00:18:08.396Z,0
2017-08-28T00:19:08.082Z,0
2017-08-28T00:20:08.370Z,0
2017-08-28T00:21:08.664Z,0
2017-08-28T00:22:08.346Z,0
2017-08-28T00:23:08.324Z,0
2017-08-28T00:24:08.630Z,0
2017-08-28T00:25:08.014Z,0
2017-08-28T00:26:08.622Z,0
2017-08-28T00:27:08.600Z,0
2017-08-28T00:28:08.276Z,0
2017-08-28T00:29:08.473Z,0
2017-08-28T00:30:08.575Z,0
2017-08-28T00:31:08.568Z,0
2017-08-28T00:32:08.228Z,0
2017-08-28T00:33:08.225Z,0
2017-08-28T00:34:08.263Z,0
2017-08-28T00:35:08.420Z,0
2017-08-28T00:36:08.514Z,0
2017-08-28T00:37:08.504Z,0
2017-08-28T00:38:08.486Z,0
2017-08-28T00:39:08.161Z,0
2017-08-28T00:40:08.679Z,0
2017-08-28T00:41:08.456Z,0
2017-08-28T00:42:07.826Z,0
2017-08-28T00:43:08.427Z,0
2017-08-28T00:44:08.451Z,0
2017-08-28T00:45:08.425Z,0
2017-08-28T00:46:08.105Z,0
2017-08-28T00:47:08.393Z,0
2017-08-28T00:48:08.077Z,0
2017-08-28T00:49:08.070Z,0
2017-08-28T00:50:08.064Z,0
2017-08-28T00:51:08.040Z,0
2017-08-28T00:52:08.046Z,0
2017-08-28T00:53:08.346Z,0
2017-08-28T00:54:08.018Z,0
2017-08-28T00:55:08.009Z,0
2017-08-28T00:56:08.318Z,0
2017-08-28T00:57:07.973Z,0
2017-08-28T00:58:07.982Z,0
2017-08-28T00:59:07.963Z,0
2017-08-28T01:00:08.261Z,0
2017-08-28T01:01:08.271Z,0
2017-08-28T01:02:08.245Z,0
2017-08-28T01:03:08.236Z,0
2017-08-28T01:04:08.238Z,0
2017-08-28T01:05:08.205Z,0
2017-08-28T01:06:08.201Z,0
2017-08-28T01:07:08.221Z,0
2017-08-28T01:08:07.866Z,0
2017-08-28T01:09:07.856Z,0
2017-08-28T01:10:08.172Z,0
2017-08-28T01:11:08.378Z,0
2017-08-28T01:12:08.061Z,0
2017-08-28T01:13:08.140Z,0
2017-08-28T01:14:07.809Z,0
2017-08-28T01:15:08.111Z,0
2017-08-28T01:16:08.098Z,0
2017-08-28T01:17:08.092Z,0
2017-08-28T01:18:08.082Z,0
2017-08-28T01:19:08.066Z,0
2017-08-28T01:20:08.068Z,0
2017-08-28T01:21:08.045Z,0
2017-08-28T01:22:08.059Z,0
2017-08-28T01:23:08.037Z,0
2017-08-28T01:24:08.042Z,0
2017-08-28T01:25:07.712Z,0
2017-08-28T01:26:08.024Z,0
2017-08-28T01:27:07.680Z,0
2017-08-28T01:28:07.979Z,0
2017-08-28T01:29:07.973Z,0
2017-08-28T01:30:07.963Z,0
2017-08-28T01:31:07.956Z,0
2017-08-28T01:32:07.629Z,0
2017-08-28T01:33:07.924Z,0
2017-08-28T01:34:07.912Z,0
2017-08-28T01:35:07.612Z,0
2017-08-28T01:36:07.910Z,0
2017-08-28T01:37:07.573Z,0
2017-08-28T01:38:07.575Z,0
2017-08-28T01:39:07.864Z,0
2017-08-28T01:40:07.850Z,0
2017-08-28T01:41:07.858Z,0
2017-08-28T01:42:07.526Z,0
2017-08-28T01:43:07.827Z,0
2017-08-28T01:44:07.829Z,0
2017-08-28T01:45:07.502Z,0
2017-08-28T01:46:07.799Z,0
2017-08-28T01:47:07.991Z,0
2017-08-28T01:48:07.465Z,0
2017-08-28T01:49:07.778Z,0
2017-08-28T01:50:07.758Z,0
2017-08-28T01:51:07.737Z,0
2017-08-28T01:52:07.738Z,0
2017-08-28T01:53:07.410Z,0
2017-08-28T01:54:07.408Z,0
2017-08-28T01:55:07.406Z,0
2017-08-28T01:56:07.381Z,0
2017-08-28T01:57:07.677Z,0
2017-08-28T01:58:07.679Z,0
2017-08-28T01:59:07.667Z,0
2017-08-28T02:00:07.649Z,0
2017-08-28T02:01:07.330Z,0
2017-08-28T02:02:07.632Z,0
2017-08-28T02:03:07.610Z,0
2017-08-28T02:04:07.300Z,0
2017-08-28T02:05:07.281Z,0
2017-08-28T02:06:07.594Z,0
2017-08-28T02:07:07.265Z,0
2017-08-28T02:08:07.248Z,0
2017-08-28T02:09:07.567Z,0
2017-08-28T02:10:07.542Z,0
2017-08-28T02:11:07.549Z,0
2017-08-28T02:12:07.523Z,0
2017-08-28T02:13:07.198Z,0
2017-08-28T02:14:07.198Z,0
2017-08-28T02:15:07.194Z,0
2017-08-28T02:16:07.173Z,0
2017-08-28T02:17:07.169Z,0
2017-08-28T02:18:07.164Z,0
2017-08-28T02:19:07.463Z,0
2017-08-28T02:20:06.833Z,0
2017-08-28T02:21:07.430Z,0
2017-08-28T02:22:06.485Z,0
2017-08-28T02:23:07.416Z,0
2017-08-28T02:24:06.780Z,0
2017-08-28T02:25:07.071Z,0
2017-08-28T02:26:06.769Z,0
2017-08-28T02:27:07.063Z,0
2017-08-28T02:28:07.039Z,0
2017-08-28T02:29:07.356Z,0
2017-08-28T02:30:07.329Z,0
2017-08-28T02:31:07.333Z,0
2017-08-28T02:32:07.322Z,0
2017-08-28T02:33:07.311Z,0
2017-08-28T02:34:06.988Z,0
2017-08-28T02:35:07.291Z,0
2017-08-28T02:36:06.959Z,0
2017-08-28T02:37:07.264Z,0
2017-08-28T02:38:06.960Z,0
2017-08-28T02:39:06.949Z,0
2017-08-28T02:40:07.236Z,0
2017-08-28T02:41:07.212Z,0
2017-08-28T02:42:07.211Z,0
2017-08-28T02:43:07.208Z,0
2017-08-28T02:44:07.197Z,0
2017-08-28T02:45:06.880Z,0
2017-08-28T02:46:07.178Z,0
2017-08-28T02:47:07.165Z,0
2017-08-28T02:48:07.141Z,0
2017-08-28T02:49:07.149Z,0
2017-08-28T02:50:06.503Z,0
2017-08-28T02:51:06.813Z,0
2017-08-28T02:52:06.792Z,0
2017-08-28T02:53:07.092Z,0
2017-08-28T02:54:07.097Z,0
2017-08-28T02:55:07.074Z,0
2017-08-28T02:56:06.436Z,0
2017-08-28T02:57:06.759Z,0
2017-08-28T02:58:06.728Z,0
2017-08-28T02:59:06.726Z,0
2017-08-28T03:00:06.714Z,0
2017-08-28T03:01:06.701Z,0
2017-08-28T03:02:06.387Z,0
2017-08-28T03:03:06.981Z,0
2017-08-28T03:04:06.979Z,0
2017-08-28T03:05:06.987Z,0
2017-08-28T03:06:06.331Z,0
2017-08-28T03:07:06.644Z,0
2017-08-28T03:08:06.635Z,0
2017-08-28T03:09:06.928Z,0
2017-08-28T03:10:06.925Z,0
2017-08-28T03:11:06.910Z,0
2017-08-28T03:12:06.606Z,0
2017-08-28T03:13:06.875Z,0
2017-08-28T03:14:06.879Z,0
2017-08-28T03:15:06.878Z,0
2017-08-28T03:16:06.539Z,0
2017-08-28T03:17:06.531Z,0
2017-08-28T03:18:06.842Z,0
2017-08-28T03:19:06.826Z,0
2017-08-28T03:20:06.512Z,0
2017-08-28T03:21:06.823Z,0
2017-08-28T03:22:06.817Z,0
2017-08-28T03:23:06.794Z,0
2017-08-28T03:24:06.767Z,0
2017-08-28T03:25:06.448Z,0
2017-08-28T03:26:06.442Z,0
2017-08-28T03:27:05.812Z,0
2017-08-28T03:28:06.437Z,0
2017-08-28T03:29:06.728Z,0
2017-08-28T03:30:06.397Z,0
2017-08-28T03:31:06.726Z,0
2017-08-28T03:32:06.383Z,0
2017-08-28T03:33:06.367Z,0
2017-08-28T03:34:06.679Z,0
2017-08-28T03:35:06.684Z,0
2017-08-28T03:36:06.341Z,0
2017-08-28T03:37:06.640Z,0
2017-08-28T03:38:06.628Z,0
2017-08-28T03:39:06.616Z,0
2017-08-28T03:40:05.985Z,0
2017-08-28T03:41:06.624Z,0
2017-08-28T03:42:06.287Z,0
2017-08-28T03:43:06.570Z,0
2017-08-28T03:44:05.939Z,0
2017-08-28T03:45:06.554Z,0
2017-08-28T03:46:05.925Z,0
2017-08-28T03:47:05.918Z,0
2017-08-28T03:48:05.909Z,0
2017-08-28T03:49:06.199Z,0
2017-08-28T03:50:06.192Z,0
2017-08-28T03:51:06.184Z,0
2017-08-28T03:52:06.175Z,0
2017-08-28T03:53:06.178Z,0
2017-08-28T03:54:06.141Z,0
2017-08-28T03:55:06.142Z,4
2017-08-28T03:56:06.131Z,4
2017-08-28T03:57:06.114Z,0
2017-08-28T03:58:06.415Z,0
2017-08-28T03:59:06.446Z,4
2017-08-28T04:00:06.409Z,4
2017-08-28T04:01:06.389Z,4
2017-08-28T04:02:06.379Z,4
2017-08-28T04:03:06.060Z,4
2017-08-28T04:04:06.366Z,8
2017-08-28T04:05:06.067Z,8
2017-08-28T04:06:06.036Z,8
2017-08-28T04:07:06.343Z,12
2017-08-28T04:08:06.008Z,16
2017-08-28T04:09:06.000Z,20
2017-08-28T04:10:06.317Z,28
2017-08-28T04:11:05.980Z,36
2017-08-28T04:12:06.277Z,44
2017-08-28T04:13:06.272Z,52
2017-08-28T04:14:06.253Z,64
2017-08-28T04:15:06.240Z,76
2017-08-28T04:16:06.246Z,92
2017-08-28T04:17:06.236Z,112
2017-08-28T04:18:06.215Z,136
2017-08-28T04:19:05.886Z,156
2017-08-28T04:20:06.190Z,168
2017-08-28T04:21:06.172Z,168
2017-08-28T04:22:06.167Z,160
2017-08-28T04:23:06.173Z,160
2017-08-28T04:24:06.170Z,164
2017-08-28T04:25:06.159Z,172
2017-08-28T04:26:06.134Z,184
2017-08-28T04:27:06.121Z,196
2017-08-28T04:28:06.117Z,208
2017-08-28T04:29:06.113Z,220
2017-08-28T04:30:06.106Z,232
2017-08-28T04:31:05.777Z,252
2017-08-28T04:32:06.079Z,280
2017-08-28T04:33:06.066Z,320
2017-08-28T04:34:05.757Z,364
2017-08-28T04:35:06.045Z,424
2017-08-28T04:36:06.053Z,492
2017-08-28T04:37:06.022Z,564
2017-08-28T04:38:06.014Z,636
2017-08-28T04:39:06.007Z,720
2017-08-28T04:40:05.683Z,796
2017-08-28T04:41:05.983Z,880
2017-08-28T04:42:05.662Z,964
2017-08-28T04:43:05.962Z,1044
2017-08-28T04:44:05.640Z,1120
2017-08-28T04:45:05.930Z,1204
2017-08-28T04:46:05.935Z,1292
2017-08-28T04:47:05.926Z,1380
2017-08-28T04:48:05.587Z,1464
2017-08-28T04:49:05.591Z,1552
2017-08-28T04:50:05.575Z,1636
2017-08-28T04:51:05.260Z,1724
2017-08-28T04:52:05.869Z,1812
2017-08-28T04:53:05.860Z,1888
2017-08-28T04:54:05.847Z,1968
2017-08-28T04:55:05.837Z,2044
2017-08-28T04:56:05.839Z,2124
2017-08-28T04:57:05.827Z,2208
2017-08-28T04:58:05.812Z,2292
2017-08-28T04:59:05.793Z,2372
2017-08-28T05:00:05.794Z,2456
2017-08-28T05:01:05.783Z,2540
2017-08-28T05:02:05.774Z,2636
2017-08-28T05:03:05.751Z,2720
2017-08-28T05:04:05.732Z,2804
2017-08-28T05:05:05.728Z,2872
2017-08-28T05:06:05.101Z,2932
2017-08-28T05:07:05.712Z,2996
2017-08-28T05:08:05.393Z,3048
2017-08-28T05:09:05.383Z,3096
2017-08-28T05:10:05.688Z,3140
2017-08-28T05:11:05.363Z,3204
2017-08-28T05:12:05.662Z,3260
2017-08-28T05:13:05.035Z,3320
2017-08-28T05:14:05.330Z,3404
2017-08-28T05:15:05.662Z,3504
2017-08-28T05:16:05.620Z,3628
2017-08-28T05:17:05.296Z,3760
2017-08-28T05:18:05.287Z,3892
2017-08-28T05:19:05.579Z,4024
2017-08-28T05:20:05.569Z,4152
2017-08-28T05:21:05.266Z,4276
2017-08-28T05:22:05.540Z,4404
2017-08-28T05:23:05.232Z,4536
2017-08-28T05:24:05.545Z,4664
2017-08-28T05:25:05.528Z,4788
2017-08-28T05:26:05.195Z,4904
2017-08-28T05:27:05.189Z,5020
2017-08-28T05:28:05.497Z,5116
2017-08-28T05:29:05.484Z,5196
2017-08-28T05:30:05.170Z,5276
2017-08-28T05:31:05.471Z,5364
2017-08-28T05:32:05.149Z,5468
2017-08-28T05:33:04.816Z,5576
2017-08-28T05:34:05.119Z,5688
2017-08-28T05:35:05.107Z,5788
2017-08-28T05:36:05.402Z,5896
2017-08-28T05:37:05.418Z,6024
2017-08-28T05:38:05.066Z,6160
2017-08-28T05:39:05.380Z,6316
2017-08-28T05:40:05.368Z,6512
2017-08-28T05:41:05.347Z,6724
2017-08-28T05:42:05.334Z,6928
2017-08-28T05:43:05.344Z,7064
2017-08-28T05:44:05.019Z,7120
2017-08-28T05:45:05.331Z,7172
2017-08-28T05:46:04.983Z,7252
2017-08-28T05:47:05.285Z,7384
2017-08-28T05:48:05.284Z,7564
2017-08-28T05:49:04.961Z,7780
2017-08-28T05:50:04.963Z,7976
2017-08-28T05:51:04.619Z,8136
2017-08-28T05:52:05.229Z,8288
2017-08-28T05:53:05.230Z,8436
2017-08-28T05:54:04.909Z,8616
2017-08-28T05:55:05.198Z,8824
2017-08-28T05:56:05.209Z,9064
2017-08-28T05:57:05.236Z,9280
2017-08-28T05:58:05.189Z,9448
2017-08-28T05:59:05.170Z,9580
2017-08-28T06:00:04.841Z,9692
2017-08-28T06:01:05.147Z,9804
2017-08-28T06:02:05.139Z,9900
2017-08-28T06:03:05.129Z,10004
2017-08-28T06:04:05.126Z,10176
2017-08-28T06:05:05.114Z,10396
2017-08-28T06:06:05.096Z,10648
2017-08-28T06:07:05.088Z,10884
2017-08-28T06:08:05.088Z,11000
2017-08-28T06:09:05.073Z,10984
2017-08-28T06:10:04.747Z,10972
2017-08-28T06:11:05.040Z,10976
2017-08-28T06:12:05.030Z,10788
2017-08-28T06:13:04.715Z,10656
2017-08-28T06:14:05.011Z,10800
2017-08-28T06:15:04.692Z,11020
2017-08-28T06:16:04.676Z,11144
2017-08-28T06:17:04.363Z,11148
2017-08-28T06:18:04.657Z,11060
2017-08-28T06:19:04.953Z,10712
2017-08-28T06:20:04.632Z,10316
2017-08-28T06:21:04.944Z,10116
2017-08-28T06:22:04.934Z,10192
2017-08-28T06:23:04.600Z,10244
2017-08-28T06:24:04.919Z,10044
2017-08-28T06:25:04.905Z,9888
2017-08-28T06:26:04.885Z,9944
2017-08-28T06:27:04.555Z,10216
2017-08-28T06:28:04.860Z,10704
2017-08-28T06:29:04.541Z,11412
2017-08-28T06:30:04.540Z,12276
2017-08-28T06:31:04.826Z,13416
2017-08-28T06:32:04.832Z,14276
2017-08-28T06:33:04.829Z,15088
2017-08-28T06:34:04.799Z,15664
2017-08-28T06:35:04.803Z,16248
2017-08-28T06:36:03.851Z,16408
2017-08-28T06:37:04.779Z,17248
2017-08-28T06:38:04.775Z,18240
2017-08-28T06:39:04.759Z,17856
2017-08-28T06:40:04.428Z,18272
2017-08-28T06:41:04.741Z,17952
2017-08-28T06:42:04.716Z,18784
2017-08-28T06:43:04.709Z,19296
2017-08-28T06:44:04.706Z,19584
2017-08-28T06:45:04.686Z,19936
2017-08-28T06:46:04.673Z,20096
2017-08-28T06:47:04.700Z,20160
2017-08-28T06:48:04.670Z,19584
2017-08-28T06:49:04.336Z,20928
2017-08-28T06:50:04.634Z,21120
2017-08-28T06:51:04.327Z,22272
2017-08-28T06:52:04.607Z,21472
2017-08-28T06:53:04.615Z,20416
2017-08-28T06:54:04.600Z,19520
2017-08-28T06:55:03.967Z,19232
2017-08-28T06:56:04.586Z,19328
2017-08-28T06:57:04.578Z,19584
2017-08-28T06:58:04.563Z,19744
2017-08-28T06:59:04.553Z,19392
2017-08-28T07:00:04.541Z,18912
2017-08-28T07:01:04.205Z,19104
2017-08-28T07:02:04.208Z,20288
2017-08-28T07:03:04.208Z,21824
2017-08-28T07:04:04.185Z,22688
2017-08-28T07:05:04.481Z,22720
2017-08-28T07:06:04.474Z,24064
2017-08-28T07:07:04.153Z,24832
2017-08-28T07:08:04.150Z,24992
2017-08-28T07:09:04.145Z,25152
2017-08-28T07:10:04.136Z,25568
2017-08-28T07:11:04.127Z,26400
2017-08-28T07:12:04.417Z,30976
2017-08-28T07:13:04.095Z,28480
2017-08-28T07:14:04.390Z,27872
2017-08-28T07:15:04.064Z,25152
2017-08-28T07:16:03.755Z,23360
2017-08-28T07:17:04.051Z,23136
2017-08-28T07:18:03.726Z,22112
2017-08-28T07:19:04.339Z,21568
2017-08-28T07:20:04.356Z,21632
2017-08-28T07:21:04.310Z,21888
2017-08-28T07:22:03.699Z,21664
2017-08-28T07:23:03.671Z,22368
2017-08-28T07:24:03.364Z,23680
2017-08-28T07:25:03.664Z,22880
2017-08-28T07:26:04.273Z,23104
2017-08-28T07:27:03.632Z,23904
2017-08-28T07:28:03.954Z,27424
2017-08-28T07:29:03.933Z,26976
2017-08-28T07:30:03.611Z,26944
2017-08-28T07:31:04.215Z,30112
2017-08-28T07:32:04.220Z,31040
2017-08-28T07:33:03.895Z,33568
2017-08-28T07:34:04.183Z,38720
2017-08-28T07:35:04.174Z,50368
2017-08-28T07:36:04.173Z,36832
2017-08-28T07:37:04.155Z,31072
2017-08-28T07:38:04.153Z,29344
2017-08-28T07:39:04.171Z,27168
2017-08-28T07:40:03.825Z,39744
2017-08-28T07:41:03.802Z,29920
2017-08-28T07:42:03.484Z,34144
2017-08-28T07:43:03.793Z,31360
2017-08-28T07:44:03.778Z,32928
2017-08-28T07:45:03.462Z,51872
2017-08-28T07:46:03.760Z,61568
2017-08-28T07:47:03.754Z,36800
2017-08-28T07:48:03.743Z,30976
2017-08-28T07:49:04.041Z,31008
2017-08-28T07:50:03.733Z,27328
2017-08-28T07:51:04.023Z,40352
2017-08-28T07:52:03.702Z,23616
2017-08-28T07:53:04.020Z,21088
2017-08-28T07:54:03.981Z,16200
2017-08-28T07:55:03.989Z,14988
2017-08-28T07:56:03.671Z,14424
2017-08-28T07:57:03.974Z,13268
2017-08-28T07:58:03.645Z,12812
2017-08-28T07:59:03.646Z,12644
2017-08-28T08:00:03.620Z,14236
2017-08-28T08:01:03.606Z,19360
2017-08-28T08:02:03.610Z,26336
2017-08-28T08:03:03.600Z,28224
2017-08-28T08:04:03.596Z,23488
2017-08-28T08:05:03.578Z,21888
2017-08-28T08:06:03.887Z,29088
2017-08-28T08:07:03.553Z,28896
2017-08-28T08:08:03.552Z,33056
2017-08-28T08:09:03.541Z,33632
2017-08-28T08:10:03.848Z,31008
2017-08-28T08:11:03.847Z,37376
2017-08-28T08:12:03.812Z,63744
2017-08-28T08:13:03.816Z,54848
2017-08-28T08:14:03.502Z,36416
2017-08-28T08:15:03.494Z,32128
2017-08-28T08:16:03.798Z,33376
2017-08-28T08:17:03.776Z,33760
2017-08-28T08:18:03.450Z,33152
2017-08-28T08:19:03.767Z,37696
2017-08-28T08:20:03.763Z,38912
2017-08-28T08:21:03.741Z,36768
2017-08-28T08:22:03.419Z,46624
2017-08-28T08:23:03.736Z,42144
2017-08-28T08:24:03.717Z,43840
2017-08-28T08:25:03.710Z,45472
2017-08-28T08:26:03.376Z,57472
2017-08-28T08:27:03.691Z,43776
2017-08-28T08:28:03.680Z,61376
2017-08-28T08:29:03.667Z,45152
2017-08-28T08:30:03.035Z,44928
2017-08-28T08:31:03.648Z,70816
2017-08-28T08:32:03.354Z,43264
2017-08-28T08:33:03.632Z,43776
2017-08-28T08:34:03.621Z,43360
2017-08-28T08:35:03.627Z,39104
2017-08-28T08:36:03.603Z,59872
2017-08-28T08:37:03.297Z,43296
2017-08-28T08:38:03.284Z,36768
2017-08-28T08:39:03.281Z,37024
2017-08-28T08:40:03.268Z,47936
2017-08-28T08:41:03.578Z,34752
2017-08-28T08:42:03.562Z,35200
2017-08-28T08:43:03.245Z,38080
2017-08-28T08:44:03.552Z,41280
2017-08-28T08:45:03.539Z,37792
2017-08-28T08:46:03.529Z,32544
2017-08-28T08:47:03.526Z,29856
2017-08-28T08:48:03.198Z,29504
2017-08-28T08:49:03.495Z,29632
2017-08-28T08:50:03.492Z,30976
2017-08-28T08:51:03.469Z,31968
2017-08-28T08:52:03.482Z,35456
2017-08-28T08:53:03.466Z,39648
2017-08-28T08:54:03.164Z,40480
2017-08-28T08:55:03.450Z,40416
2017-08-28T08:56:03.445Z,41184
2017-08-28T08:57:03.121Z,42656
2017-08-28T08:58:03.427Z,39328
2017-08-28T08:59:03.423Z,35968
2017-08-28T09:00:03.402Z,32832
2017-08-28T09:01:03.396Z,33568
2017-08-28T09:02:03.390Z,35232
2017-08-28T09:03:03.391Z,38656
2017-08-28T09:04:03.379Z,59936
2017-08-28T09:05:03.375Z,39968
2017-08-28T09:06:03.041Z,42688
2017-08-28T09:07:03.359Z,40576
2017-08-28T09:08:03.333Z,104032
2017-08-28T09:09:03.022Z,99680
2017-08-28T09:10:03.327Z,105856
2017-08-28T09:11:03.004Z,100800
2017-08-28T09:12:03.309Z,49504
2017-08-28T09:13:03.308Z,100128
2017-08-28T09:14:03.282Z,45344
2017-08-28T09:15:03.282Z,40864
2017-08-28T09:16:03.271Z,98432
2017-08-28T09:17:03.273Z,49184
2017-08-28T09:18:03.266Z,69216
2017-08-28T09:19:03.248Z,43264
2017-08-28T09:20:03.242Z,38432
2017-08-28T09:21:03.250Z,102592
2017-08-28T09:22:02.919Z,94400
2017-08-28T09:23:03.222Z,38624
2017-08-28T09:24:03.211Z,76832
2017-08-28T09:25:03.220Z,48512
2017-08-28T09:26:02.884Z,61024
2017-08-28T09:27:02.921Z,94336
2017-08-28T09:28:02.888Z,35392
2017-08-28T09:29:03.186Z,31136
2017-08-28T09:30:02.856Z,44416
2017-08-28T09:31:02.862Z,71040
2017-08-28T09:32:02.844Z,82208
2017-08-28T09:33:02.846Z,49216
2017-08-28T09:34:02.825Z,56256
2017-08-28T09:35:02.828Z,86976
2017-08-28T09:36:02.824Z,56608
2017-08-28T09:37:02.816Z,90304
2017-08-28T09:38:02.801Z,94656
2017-08-28T09:39:03.092Z,89632
2017-08-28T09:40:03.105Z,79104
2017-08-28T09:41:03.103Z,91328
2017-08-28T09:42:02.788Z,83168
2017-08-28T09:43:03.101Z,88320
2017-08-28T09:44:03.090Z,37152
2017-08-28T09:45:03.061Z,39200
2017-08-28T09:46:02.451Z,91392
2017-08-28T09:47:03.054Z,52256
2017-08-28T09:48:02.740Z,76160
2017-08-28T09:49:03.049Z,90976
2017-08-28T09:50:02.712Z,98400
2017-08-28T09:51:02.409Z,63488
2017-08-28T09:52:02.397Z,101472
2017-08-28T09:53:03.006Z,55456
2017-08-28T09:54:03.003Z,103008
2017-08-28T09:55:03.001Z,53088
2017-08-28T09:56:02.985Z,58176
2017-08-28T09:57:02.672Z,49376
2017-08-28T09:58:02.988Z,49344
2017-08-28T09:59:02.668Z,46464
2017-08-28T10:00:02.967Z,46048
2017-08-28T10:01:02.961Z,45248
2017-08-28T10:02:02.953Z,84416
2017-08-28T10:03:02.945Z,29344
2017-08-28T10:04:02.620Z,26400
2017-08-28T10:05:02.934Z,29120
2017-08-28T10:06:02.605Z,36544
2017-08-28T10:07:02.598Z,92608
2017-08-28T10:08:02.599Z,97216
2017-08-28T10:09:02.902Z,55296
2017-08-28T10:10:02.579Z,99200
2017-08-28T10:11:02.272Z,54656
2017-08-28T10:12:02.568Z,39616
2017-08-28T10:13:02.565Z,36096
2017-08-28T10:14:02.555Z,28448
2017-08-28T10:15:02.863Z,26656
2017-08-28T10:16:02.849Z,22976
2017-08-28T10:17:02.845Z,19840
2017-08-28T10:18:02.836Z,19424
2017-08-28T10:19:02.822Z,20224
2017-08-28T10:20:02.821Z,23424
2017-08-28T10:21:02.805Z,23904
2017-08-28T10:22:02.816Z,24512
2017-08-28T10:23:02.793Z,32960
2017-08-28T10:24:02.799Z,82144
2017-08-28T10:25:02.778Z,49632
2017-08-28T10:26:02.770Z,58048
2017-08-28T10:27:02.756Z,94528
2017-08-28T10:28:02.759Z,79616
2017-08-28T10:29:02.442Z,54880
2017-08-28T10:30:02.734Z,30336
2017-08-28T10:31:02.743Z,23296
2017-08-28T10:32:02.731Z,22368
2017-08-28T10:33:02.406Z,23872
2017-08-28T10:34:02.718Z,31872
2017-08-28T10:35:02.396Z,43520
2017-08-28T10:36:02.703Z,41184
2017-08-28T10:37:02.678Z,42144
2017-08-28T10:38:02.672Z,42336
2017-08-28T10:39:02.671Z,35488
2017-08-28T10:40:02.658Z,27584
2017-08-28T10:41:02.665Z,20640
2017-08-28T10:42:02.029Z,16672
2017-08-28T10:43:02.647Z,15624
2017-08-28T10:44:02.638Z,15112
2017-08-28T10:45:02.306Z,12772
2017-08-28T10:46:02.302Z,10312
2017-08-28T10:47:02.610Z,9568
2017-08-28T10:48:02.607Z,8948
2017-08-28T10:49:02.288Z,8204
2017-08-28T10:50:02.278Z,7400
2017-08-28T10:51:02.273Z,8568
2017-08-28T10:52:02.557Z,12160
2017-08-28T10:53:02.565Z,15028
2017-08-28T10:54:02.553Z,18240
2017-08-28T10:55:02.245Z,19136
2017-08-28T10:56:02.543Z,17984
2017-08-28T10:57:02.219Z,15896
2017-08-28T10:58:02.212Z,13340
2017-08-28T10:59:02.197Z,11688
2017-08-28T11:00:01.885Z,10880
2017-08-28T11:01:02.491Z,19552
2017-08-28T11:02:02.175Z,44768
2017-08-28T11:03:02.158Z,52064
2017-08-28T11:04:02.173Z,42112
2017-08-28T11:05:02.464Z,25536
2017-08-28T11:06:02.441Z,23072
2017-08-28T11:07:01.832Z,18304
2017-08-28T11:08:02.118Z,20096
2017-08-28T11:09:02.438Z,26720
2017-08-28T11:10:02.422Z,72064
2017-08-28T11:11:02.115Z,32544
2017-08-28T11:12:02.410Z,56160
2017-08-28T11:13:02.089Z,67232
2017-08-28T11:14:02.089Z,112480
2017-08-28T11:15:02.406Z,110240
2017-08-28T11:16:01.764Z,52256
2017-08-28T11:17:02.365Z,31712
2017-08-28T11:18:02.042Z,67104
2017-08-28T11:19:02.042Z,115552
2017-08-28T11:20:02.355Z,100608
2017-08-28T11:21:02.339Z,70752
2017-08-28T11:22:02.024Z,76992
2017-08-28T11:23:02.323Z,38336
2017-08-28T11:24:02.309Z,30272
2017-08-28T11:25:02.001Z,26464
2017-08-28T11:26:01.988Z,32992
2017-08-28T11:27:02.298Z,53248
2017-08-28T11:28:02.284Z,73248
2017-08-28T11:29:01.979Z,71424
2017-08-28T11:30:02.276Z,124704
2017-08-28T11:31:02.264Z,96608
2017-08-28T11:32:02.249Z,102720
2017-08-28T11:33:01.944Z,109696
2017-08-28T11:34:01.955Z,34848
2017-08-28T11:35:01.921Z,22336
2017-08-28T11:36:01.921Z,16096
2017-08-28T11:37:01.908Z,9380
2017-08-28T11:38:01.923Z,8948
2017-08-28T11:39:01.895Z,9876
2017-08-28T11:40:01.886Z,11144
2017-08-28T11:41:01.883Z,15612
2017-08-28T11:42:02.189Z,33248
2017-08-28T11:43:01.874Z,51008
2017-08-28T11:44:01.878Z,37472
2017-08-28T11:45:01.879Z,52352
2017-08-28T11:46:01.855Z,69120
2017-08-28T11:47:01.869Z,64928
2017-08-28T11:48:02.142Z,76768
2017-08-28T11:49:02.141Z,117056
2017-08-28T11:50:01.836Z,100608
2017-08-28T11:51:02.150Z,102720
2017-08-28T11:52:02.126Z,50560
2017-08-28T11:53:02.114Z,50624
2017-08-28T11:54:02.119Z,93728
2017-08-28T11:55:02.110Z,114720
2017-08-28T11:56:01.791Z,113056
2017-08-28T11:57:02.088Z,118016
2017-08-28T11:58:02.087Z,125248
2017-08-28T11:59:02.085Z,127968
2017-08-28T12:00:02.076Z,107712
2017-08-28T12:01:02.082Z,38368
2017-08-28T12:02:02.060Z,122848
2017-08-28T12:03:02.063Z,131456
2017-08-28T12:04:01.749Z,123392
2017-08-28T12:05:01.420Z,25664
2017-08-28T12:06:02.055Z,13980
2017-08-28T12:07:02.029Z,13064
2017-08-28T12:08:02.041Z,12060
2017-08-28T12:09:02.021Z,11852
2017-08-28T12:10:02.019Z,12848
2017-08-28T12:11:01.709Z,10364
2017-08-28T12:12:02.017Z,8680
2017-08-28T12:13:02.006Z,8052
2017-08-28T12:14:02.000Z,7296
2017-08-28T12:15:01.989Z,6104
2017-08-28T12:16:01.978Z,8024
2017-08-28T12:17:01.969Z,10548
2017-08-28T12:18:01.983Z,15520
2017-08-28T12:19:01.963Z,13888
2017-08-28T12:20:01.656Z,11904
2017-08-28T12:21:01.654Z,12692
2017-08-28T12:22:01.933Z,19648
2017-08-28T12:23:01.621Z,36672
2017-08-28T12:24:01.930Z,21312
2017-08-28T12:25:01.918Z,21312
2017-08-28T12:26:01.895Z,28704
2017-08-28T12:27:01.587Z,23136
2017-08-28T12:28:01.884Z,19104
2017-08-28T12:29:01.895Z,21568
2017-08-28T12:30:01.572Z,19936
2017-08-28T12:31:01.560Z,21376
2017-08-28T12:32:01.877Z,23552
2017-08-28T12:33:01.870Z,27040
2017-08-28T12:34:01.845Z,30272
2017-08-28T12:35:01.832Z,28992
2017-08-28T12:36:01.526Z,38368
2017-08-28T12:37:01.520Z,51616
2017-08-28T12:38:01.504Z,68416
2017-08-28T12:39:01.796Z,27232
2017-08-28T12:40:01.813Z,18944
2017-08-28T12:41:01.806Z,18784
2017-08-28T12:42:01.793Z,19168
2017-08-28T12:43:01.784Z,19712
2017-08-28T12:44:01.777Z,23072
2017-08-28T12:45:01.757Z,19488
2017-08-28T12:46:01.453Z,15804
2017-08-28T12:47:01.752Z,16724
2017-08-28T12:48:01.752Z,13988
2017-08-28T12:49:01.749Z,21920
2017-08-28T12:50:01.421Z,27584
2017-08-28T12:51:01.727Z,55392
2017-08-28T12:52:01.712Z,76384
2017-08-28T12:53:01.709Z,59168
2017-08-28T12:54:01.395Z,76864
2017-08-28T12:55:01.376Z,61408
2017-08-28T12:56:01.689Z,74848
2017-08-28T12:57:01.378Z,66560
2017-08-28T12:58:01.677Z,72864
2017-08-28T12:59:01.045Z,58560
2017-08-28T13:00:01.669Z,76608
2017-08-28T13:01:01.337Z,89824
2017-08-28T13:02:01.644Z,90560
2017-08-28T13:03:01.656Z,65280
2017-08-28T13:04:01.633Z,90848
2017-08-28T13:05:01.637Z,82560
2017-08-28T13:06:01.619Z,109504
2017-08-28T13:07:01.359Z,101056
2017-08-28T13:08:01.606Z,84576
2017-08-28T13:09:01.283Z,68000
2017-08-28T13:10:01.600Z,58240
2017-08-28T13:11:01.592Z,85440
2017-08-28T13:12:01.578Z,49792
2017-08-28T13:13:01.574Z,42944
2017-08-28T13:14:01.567Z,54624
2017-08-28T13:15:01.562Z,38272
2017-08-28T13:16:01.560Z,21088
2017-08-28T13:17:01.548Z,20512
2017-08-28T13:18:01.241Z,23456
2017-08-28T13:19:01.553Z,25504
2017-08-28T13:20:01.536Z,27840
2017-08-28T13:21:01.542Z,34688
2017-08-28T13:22:01.536Z,49376
2017-08-28T13:23:01.536Z,30176
2017-08-28T13:24:01.206Z,16468
2017-08-28T13:25:01.516Z,16272
2017-08-28T13:26:01.203Z,19968
2017-08-28T13:27:01.509Z,24992
2017-08-28T13:28:00.868Z,25856
2017-08-28T13:29:01.493Z,15496